Strona główna
METAR-TAF:

METAR-TAF

Lotnisko :

Port lotniczy Nawakszut

Nawakszut, Mauretania

Szerokość geograficzna: 18-18-36N, Długość geograficzna: 015-58-11W, wysokość: 3 m

Aktualna obserwacja pogody

Raport powstał 26 minut temu, godzina 23:00 UTC
Wiatr 9 kt od zachodnio-południowy zachód
Temperatura 23°C
Wilgotność 78%
Ciśnienie 1012 hPa
Widzialność: 8000 m

METAR: GQNO 232300Z 24009KT 8000 NSC 23/19 Q1012 NOSIG

czas: 23:26 (23:26 UTC)

Prognoza

Raport powstał 6 godziny i 26 minut temu, godzina 17:00 UTC
Prognoza ważna od 23 godzina 18 UTC do 24 godzina 24 UTC
Wiatr 14 kt od północny zachód
Widzialność: 6000 m
Stopniowe zmiany
od 24 godzina 07 UTC do 24 godzina 09 UTC
Wiatr 10 kt od zachód
Stopniowe zmiany
od 24 godzina 14 UTC do 24 godzina 16 UTC
Wiatr 12 kt od północno-północny zachód

TAF: GQNO 231700Z 2318/2424 32014KT 6000 NSC BECMG 2407/2409 26010KT BECMG 2414/2416 33012KT

Obserwacja i prognoza pogody dla ponad 4000 lotnisk (raport METAR i TAF).

Dostępne stacje oznaczono żółtymi i czerwonymi punktami na mapie.

Najedź kursorem aby zobaczyć nazwę stacji.

Kliknij aby zobaczyć obserwacje i prognozy pogody.

Aby zmienić mapę: kliknij na zielony przycisk z czarnym krzyżykiem, aby powiększyć; na zielony przycisk z myślnikiem, aby pomniejszyć; na zielone strzałki, aby przejść do map sąsiednich.


METAR-TAF: